Terminal Aerodrome Forecast
Issued by NWS

Current Version | Previous Version | Graphics & Text | Print | Product List | Glossary On
Versions: 1 2 3 4 5 6 7 8 9 10 11 12 13 14 15 16 17 18
000
FTUS41 KPBZ 241400 AAA
TAFMGW
TAF AMD
KMGW 241459Z 2415/2512 16006KT P6SM OVC045 WS015/19035KT
     FM242100 17010KT P6SM BKN035 WS015/19040KT
     FM250100 22020G35KT P6SM -SHRA BKN035 PROB30 2501/2502
      23020G45KT -TSRA BKN020CB
     FM250300 25017G25KT P6SM VCSH OVC035 PROB30 2503/2506 -RA
      BKN025
     FM250600 24014G22KT P6SM BKN040=

USA.gov is the U.S. government's official web portal to all federal, state and local government web resources and services.